Time;durP1;ratioP1;P1;durP2;ratioP2;P2;SDS_P1;SDS_P2;PMS_P1;PMS_P2;Temp;Humidity;BMP_temperature;BMP_pressure;BME280_temperature;BME280_humidity;BME280_pressure;Samples;Min_cycle;Max_cycle;Signal;HPM_P1;HPM_P2
2022/09/23 00:00:32;;;;;;;12.90;7.47;;;;;;;12.37;68.52;101640.88;4970661;28;20114;-53
2022/09/23 00:02:58;;;;;;;10.02;6.90;;;;;;;12.20;68.61;101633.84;4956978;28;20039;-53
2022/09/23 00:05:28;;;;;;;13.23;7.15;;;;;;;12.24;68.92;101640.72;4971610;28;20119;-53
2022/09/23 00:07:56;;;;;;;;;;;;;;;12.55;66.77;101640.75;4990367;28;20031;-54
2022/09/23 00:10:24;;;;;;;10.15;6.65;;;;;;;12.23;68.77;101644.31;4977529;28;19914;-53
2022/09/23 00:12:50;;;;;;;9.07;6.80;;;;;;;12.12;69.46;101643.22;4990480;28;20076;-52
2022/09/23 00:15:17;;;;;;;9.38;7.03;;;;;;;12.07;69.67;101631.97;4991906;28;20026;-53
2022/09/23 00:17:46;;;;;;;11.43;7.10;;;;;;;11.97;69.71;101636.94;4975131;28;20038;-52
2022/09/23 00:20:12;;;;;;;11.88;7.85;;;;;;;12.12;69.48;101633.44;4973184;28;20038;-53
2022/09/23 00:22:39;;;;;;;9.63;7.38;;;;;;;12.12;69.62;101635.22;4989795;28;20052;-52
2022/09/23 00:25:06;;;;;;;11.45;7.68;;;;;;;12.03;70.13;101632.16;4990379;28;20401;-53
2022/09/23 00:27:32;;;;;;;10.18;8.25;;;;;;;11.97;69.89;101631.63;4991328;28;20107;-53
2022/09/23 00:30:00;;;;;;;11.38;8.25;;;;;;;12.00;69.49;101619.00;4967594;28;20070;-53
2022/09/23 00:32:26;;;;;;;10.80;8.10;;;;;;;12.00;69.87;101624.31;4973621;28;20018;-52
2022/09/23 00:34:54;;;;;;;13.70;8.30;;;;;;;12.03;69.26;101618.81;4954596;28;20030;-53
2022/09/23 00:37:20;;;;;;;13.52;7.88;;;;;;;11.98;69.67;101622.69;4973543;28;20022;-53
2022/09/23 00:39:48;;;;;;;9.57;8.40;;;;;;;11.74;70.06;101608.91;4964050;28;20038;-53
2022/09/23 00:42:19;;;;;;;14.82;8.48;;;;;;;11.89;69.81;101618.75;4994257;28;20054;-52
2022/09/23 00:44:52;;;;;;;13.75;9.73;;;;;;;11.93;69.63;101614.94;4954747;28;20027;-52
2022/09/23 00:47:42;;;;;;;13.18;9.93;;;;;;;11.88;69.52;101616.13;4962276;28;20033;-53
2022/09/23 00:50:16;;;;;;;11.38;9.13;;;;;;;11.82;69.88;101611.97;4981924;28;20042;-53
2022/09/23 00:52:44;;;;;;;13.90;9.88;;;;;;;11.83;70.03;101606.56;4974231;28;20034;-53
2022/09/23 00:55:16;;;;;;;12.02;10.05;;;;;;;11.81;70.10;101615.59;4991528;28;20069;-52
2022/09/23 00:57:44;;;;;;;15.70;10.25;;;;;;;11.67;70.55;101611.03;4990454;28;20469;-54
2022/09/23 01:00:14;;;;;;;12.80;10.80;;;;;;;11.69;70.22;101605.63;4990728;28;20026;-53
2022/09/23 01:02:40;;;;;;;15.63;11.15;;;;;;;11.76;70.35;101609.66;4992425;28;20053;-52
2022/09/23 01:05:07;;;;;;;13.93;11.20;;;;;;;11.71;70.51;101604.59;5000915;28;20070;-53
2022/09/23 01:07:33;;;;;;;14.32;10.95;;;;;;;11.65;70.92;101612.94;4990648;28;20026;-54
2022/09/23 01:10:00;;;;;;;15.90;11.23;;;;;;;11.51;70.90;101597.72;4996721;28;20029;-53
2022/09/23 01:12:36;;;;;;;12.73;10.88;;;;;;;11.70;70.66;101594.88;5007199;28;20062;-53
2022/09/23 01:15:11;;;;;;;15.95;11.85;;;;;;;11.60;71.06;101607.00;4990780;28;20026;-52
2022/09/23 01:18:02;;;;;;;13.73;10.95;;;;;;;11.54;71.05;101607.34;4991396;28;20025;-53
2022/09/23 01:20:45;;;;;;;12.82;10.77;;;;;;;11.56;70.76;101600.97;4989493;28;20481;-54
2022/09/23 01:23:48;;;;;;;14.30;10.55;;;;;;;11.58;70.81;101604.41;4995980;28;20392;-53
2022/09/23 01:26:44;;;;;;;13.13;10.88;;;;;;;11.56;71.01;101600.13;4993480;28;20045;-53
2022/09/23 01:29:26;;;;;;;16.20;11.40;;;;;;;11.54;71.05;101597.53;4979367;28;20030;-55
2022/09/23 01:32:09;;;;;;;12.77;11.13;;;;;;;11.65;70.77;101596.06;4991090;28;20026;-53
2022/09/23 01:34:43;;;;;;;14.57;11.00;;;;;;;11.72;70.35;101594.81;4989786;28;20033;-52
2022/09/23 01:37:14;;;;;;;15.15;10.75;;;;;;;11.63;70.67;101590.84;4989518;28;20508;-53
2022/09/23 01:40:10;;;;;;;15.30;11.25;;;;;;;11.70;70.24;101586.03;4990992;28;20019;-52
2022/09/23 01:42:46;;;;;;;15.18;10.98;;;;;;;11.57;70.52;101594.69;4987793;28;20022;-53
2022/09/23 01:45:30;;;;;;;12.20;10.20;;;;;;;11.65;70.37;101593.41;4989950;28;20370;-53
2022/09/23 01:48:12;;;;;;;15.55;11.05;;;;;;;11.59;70.57;101589.31;4979870;28;20039;-53
2022/09/23 01:50:57;;;;;;;14.13;10.27;;;;;;;11.57;70.81;101584.03;4982732;28;20381;-53
2022/09/23 01:54:18;;;;;;;13.30;11.27;;;;;;;11.57;70.45;101589.38;4929955;28;20122;-54
2022/09/23 01:56:51;;;;;;;12.55;11.25;;;;;;;11.43;71.36;101586.59;4930674;28;20047;-53
2022/09/23 01:59:45;;;;;;;13.73;11.52;;;;;;;11.50;71.20;101585.34;4925728;28;20040;-52
2022/09/23 02:02:20;;;;;;;12.50;11.05;;;;;;;11.43;71.54;101583.09;4933063;28;20048;-53
2022/09/23 02:05:08;;;;;;;13.15;11.52;;;;;;;11.52;71.44;101585.25;4899384;29;20487;-53
2022/09/23 02:07:43;;;;;;;13.38;11.60;;;;;;;11.50;71.71;101584.44;4917709;28;20055;-53
2022/09/23 02:10:21;;;;;;;11.68;10.32;;;;;;;11.46;71.78;101585.56;4928269;28;20043;-53
2022/09/23 02:12:51;;;;;;;12.43;10.98;;;;;;;11.33;72.36;101582.75;4914717;28;20035;-53
2022/09/23 02:15:24;;;;;;;14.23;12.75;;;;;;;11.40;71.78;101578.78;4929645;28;20395;-53
2022/09/23 02:17:57;;;;;;;12.60;11.30;;;;;;;11.21;72.98;101573.63;4914017;28;20435;-53
2022/09/23 02:20:33;;;;;;;15.98;11.02;;;;;;;11.29;72.55;101573.19;4928214;28;20071;-51
2022/09/23 02:23:06;;;;;;;14.07;11.95;;;;;;;11.14;73.08;101570.41;4949355;28;20272;-52
2022/09/23 02:26:06;;;;;;;12.95;11.55;;;;;;;11.32;72.48;101568.56;4956668;28;20042;-53
2022/09/23 02:28:38;;;;;;;;;;;;;;;11.47;71.09;101571.31;4976863;28;20536;-52
2022/09/23 02:31:12;;;;;;;15.68;11.73;;;;;;;11.33;72.43;101564.09;4980853;28;19921;-52
2022/09/23 02:33:44;;;;;;;14.75;11.13;;;;;;;11.25;72.76;101561.84;4985067;28;20033;-53
2022/09/23 02:36:18;;;;;;;14.23;11.98;;;;;;;11.30;72.54;101565.13;4988600;28;20480;-53
2022/09/23 02:38:56;;;;;;;16.25;12.23;;;;;;;11.32;71.91;101549.03;4988339;28;20053;-53
2022/09/23 02:41:32;;;;;;;14.15;11.80;;;;;;;11.19;72.32;101538.22;4990439;28;20088;-53
2022/09/23 02:44:11;;;;;;;13.32;11.40;;;;;;;11.31;71.53;101542.84;4986702;28;20030;-56
2022/09/23 02:46:38;;;;;;;12.48;11.20;;;;;;;11.22;71.79;101534.53;4972529;28;20045;-53
2022/09/23 02:49:12;;;;;;;13.52;12.00;;;;;;;11.17;72.08;101541.91;4965566;28;20481;-53
2022/09/23 02:51:39;;;;;;;13.85;12.10;;;;;;;11.19;71.87;101543.53;4953377;28;20031;-53
2022/09/23 02:54:09;;;;;;;16.02;11.98;;;;;;;11.05;72.14;101535.44;4991074;28;20392;-53
2022/09/23 02:56:36;;;;;;;16.55;11.38;;;;;;;11.06;72.39;101538.03;4988396;28;20491;-52
2022/09/23 02:59:02;;;;;;;13.45;11.52;;;;;;;10.95;72.56;101532.41;5003822;28;20430;-53
2022/09/23 03:01:34;;;;;;;13.10;10.88;;;;;;;10.97;72.53;101532.31;4977191;28;20395;-53
2022/09/23 03:04:10;;;;;;;17.35;11.48;;;;;;;10.89;73.14;101524.75;4988889;28;20041;-53
2022/09/23 03:06:51;;;;;;;12.40;11.13;;;;;;;10.97;72.50;101521.66;4980156;28;20069;-53
2022/09/23 03:09:26;;;;;;;14.13;11.43;;;;;;;10.91;72.20;101526.41;4983113;28;20114;-52
2022/09/23 03:12:04;;;;;;;15.13;11.90;;;;;;;10.74;73.01;101520.25;4990028;28;20109;-51
2022/09/23 03:14:53;;;;;;;12.65;11.27;;;;;;;10.84;72.55;101527.66;4999488;28;20031;-53
2022/09/23 03:17:36;;;;;;;16.67;11.33;;;;;;;10.85;72.54;101524.06;4989496;28;20453;-53
2022/09/23 03:20:28;;;;;;;14.00;11.45;;;;;;;10.84;72.37;101522.34;4985083;28;20042;-53
2022/09/23 03:23:01;;;;;;;14.75;11.35;;;;;;;10.74;72.68;101520.25;4978472;28;20073;-53
2022/09/23 03:25:32;;;;;;;12.52;11.02;;;;;;;10.68;72.88;101519.63;4975582;28;20126;-53
2022/09/23 03:27:59;;;;;;;14.18;10.55;;;;;;;10.60;73.19;101523.66;4970013;28;20176;-53
2022/09/23 03:30:25;;;;;;;13.23;10.43;;;;;;;10.62;73.23;101511.97;4983450;28;20068;-53
2022/09/23 03:32:53;;;;;;;12.93;11.30;;;;;;;10.52;73.16;101510.72;4973060;28;20038;-53
2022/09/23 03:35:22;;;;;;;11.48;9.73;;;;;;;10.58;73.22;101507.75;4987998;28;20030;-53
2022/09/23 03:38:15;;;;;;;12.38;10.35;;;;;;;10.65;72.36;101516.28;4989285;28;20026;-53
2022/09/23 03:40:46;;;;;;;14.68;10.75;;;;;;;10.61;72.25;101512.03;4974541;28;20511;-53
2022/09/23 03:43:12;;;;;;;12.88;10.13;;;;;;;10.59;72.53;101519.25;4997192;28;20018;-53
2022/09/23 03:45:37;;;;;;;13.15;10.55;;;;;;;10.59;72.26;101524.56;4957504;28;20027;-53
2022/09/23 03:48:03;;;;;;;13.57;10.80;;;;;;;10.46;73.50;101513.72;4967829;28;20553;-53
2022/09/23 03:50:28;;;;;;;13.15;9.93;;;;;;;10.51;73.38;101516.16;4948612;28;20035;-53
2022/09/23 03:52:54;;;;;;;11.25;10.13;;;;;;;10.51;73.38;101516.16;4961113;28;20498;-53
2022/09/23 03:55:22;;;;;;;12.65;9.85;;;;;;;10.48;73.15;101506.53;4971184;28;20042;-53
2022/09/23 03:57:48;;;;;;;17.55;9.98;;;;;;;10.44;73.58;101507.59;4955549;28;20411;-53
2022/09/23 04:00:14;;;;;;;13.77;10.00;;;;;;;10.42;73.48;101506.84;4981357;28;20030;-53
2022/09/23 04:02:40;;;;;;;11.73;9.52;;;;;;;10.40;73.42;101506.91;5002582;28;20029;-53
2022/09/23 04:05:07;;;;;;;10.80;9.75;;;;;;;10.40;73.73;101512.22;4995198;28;20050;-53
2022/09/23 04:07:32;;;;;;;12.13;10.90;;;;;;;10.44;72.90;101507.59;4991792;28;20026;-52
2022/09/23 04:10:00;;;;;;;16.33;10.20;;;;;;;10.41;73.29;101502.44;4974668;28;20803;-52
2022/09/23 04:12:26;;;;;;;12.70;10.02;;;;;;;10.33;73.66;101500.19;4987003;28;20023;-54
2022/09/23 04:14:51;;;;;;;11.18;9.77;;;;;;;10.38;73.41;101507.91;4993796;28;20400;-53
2022/09/23 04:17:18;;;;;;;10.95;9.85;;;;;;;10.34;73.55;101501.91;4978809;28;20026;-53
2022/09/23 04:19:44;;;;;;;14.68;10.45;;;;;;;10.39;73.56;101494.56;4996653;28;20076;-53
2022/09/23 04:22:09;;;;;;;14.13;9.75;;;;;;;10.33;73.04;101499.34;4938865;28;20030;-53
2022/09/23 04:24:35;;;;;;;12.63;10.15;;;;;;;10.40;73.16;101500.72;4972325;28;20035;-53
2022/09/23 04:27:01;;;;;;;13.13;10.15;;;;;;;10.36;73.25;101510.69;4973154;28;20436;-53
2022/09/23 04:29:26;;;;;;;13.38;9.88;;;;;;;10.31;72.94;101510.03;4995772;28;20031;-53
2022/09/23 04:31:53;;;;;;;13.50;9.80;;;;;;;10.24;73.60;101496.19;4979150;28;20021;-53
2022/09/23 04:34:19;;;;;;;15.95;9.70;;;;;;;10.33;73.39;101500.19;4990801;28;20402;-51
2022/09/23 04:36:46;;;;;;;16.25;10.35;;;;;;;10.28;73.50;101498.72;4992157;28;20045;-53
2022/09/23 04:39:13;;;;;;;12.52;10.10;;;;;;;10.27;73.72;101503.19;4990897;28;20030;-53
2022/09/23 04:41:39;;;;;;;11.57;10.18;;;;;;;10.29;73.27;101495.09;5009492;28;20427;-53
2022/09/23 04:44:05;;;;;;;10.32;9.32;;;;;;;10.27;73.28;101497.88;4972276;28;20030;-53
2022/09/23 04:46:30;;;;;;;13.93;9.88;;;;;;;10.28;73.80;101494.25;4957090;28;20493;-53
2022/09/23 04:48:56;;;;;;;11.65;9.70;;;;;;;10.26;73.74;101495.22;4978989;28;20072;-53
2022/09/23 04:51:25;;;;;;;14.73;9.57;;;;;;;10.20;73.69;101497.25;4973546;28;20091;-52
2022/09/23 04:53:53;;;;;;;17.75;10.80;;;;;;;10.14;74.33;101494.06;4990708;28;20054;-53
2022/09/23 04:56:21;;;;;;;11.55;10.35;;;;;;;10.06;74.39;101480.28;4974257;28;20496;-52
2022/09/23 04:58:47;;;;;;;13.00;10.10;;;;;;;10.17;74.21;101494.75;4991475;28;20025;-51
2022/09/23 05:01:25;;;;;;;11.73;9.35;;;;;;;10.20;74.03;101481.31;4973213;28;20031;-52
2022/09/23 05:03:57;;;;;;;16.23;10.35;;;;;;;10.17;73.95;101477.94;4989831;28;20026;-53
2022/09/23 05:06:24;;;;;;;12.85;9.60;;;;;;;10.15;74.30;101477.19;4980826;28;20045;-52
2022/09/23 05:08:54;;;;;;;12.18;9.30;;;;;;;10.12;74.53;101482.66;4997058;28;20113;-52
2022/09/23 05:11:20;;;;;;;16.38;9.75;;;;;;;10.15;74.18;101483.38;4961818;28;20026;-53
2022/09/23 05:13:47;;;;;;;11.32;10.13;;;;;;;10.14;74.59;101478.97;4990236;28;20096;-52
2022/09/23 05:16:13;;;;;;;12.45;9.15;;;;;;;10.08;74.44;101484.59;4990239;28;20030;-51
2022/09/23 05:18:41;;;;;;;12.60;9.38;;;;;;;10.05;75.19;101489.22;4973380;28;20544;-53
2022/09/23 05:21:09;;;;;;;13.07;8.77;;;;;;;9.94;74.74;101487.09;4991232;28;20026;-50
2022/09/23 05:23:35;;;;;;;11.70;9.05;;;;;;;9.88;74.99;101463.47;4984655;28;20030;-53
2022/09/23 05:26:08;;;;;;;10.55;9.20;;;;;;;10.04;74.87;101487.50;4989932;28;20044;-53
2022/09/23 05:28:38;;;;;;;14.63;9.60;;;;;;;9.92;74.76;101495.16;4999920;28;20395;-52
2022/09/23 05:31:06;;;;;;;11.30;9.15;;;;;;;9.96;74.51;101495.84;4973284;28;20037;-51
2022/09/23 05:33:33;;;;;;;14.77;8.40;;;;;;;10.01;74.56;101502.66;4993608;28;20031;-51
2022/09/23 05:35:59;;;;;;;13.32;9.70;;;;;;;10.01;75.52;101505.31;4974235;28;20593;-52
2022/09/23 05:38:27;;;;;;;12.60;8.98;;;;;;;9.98;75.79;101500.16;4938159;28;20030;-53
2022/09/23 05:41:14;;;;;;;12.40;9.20;;;;;;;10.02;74.66;101512.34;4989496;28;20030;-52
2022/09/23 05:43:40;;;;;;;13.38;9.25;;;;;;;10.06;75.39;101517.50;4969722;28;20088;-52
2022/09/23 05:46:23;;;;;;;12.70;9.20;;;;;;;10.08;74.98;101502.34;4953967;28;20031;-53
2022/09/23 05:48:50;;;;;;;11.88;9.45;;;;;;;10.01;74.60;101500.00;4999655;28;20032;-53
2022/09/23 05:51:18;;;;;;;11.40;9.52;;;;;;;10.07;74.75;101509.47;5001713;28;20060;-53
2022/09/23 05:53:45;;;;;;;13.82;9.40;;;;;;;10.11;75.27;101510.16;4988842;28;20038;-53
2022/09/23 05:56:12;;;;;;;10.18;9.05;;;;;;;10.11;75.62;101515.47;4989720;28;20022;-52
2022/09/23 05:58:39;;;;;;;11.82;8.45;;;;;;;10.16;75.54;101511.66;4989776;28;20427;-53
2022/09/23 06:01:12;;;;;;;12.98;9.50;;;;;;;10.18;75.14;101515.09;5000004;28;20030;-53
2022/09/23 06:03:39;;;;;;;12.65;9.68;;;;;;;10.13;75.16;101510.97;4969338;28;20511;-53
2022/09/23 06:06:13;;;;;;;16.00;9.88;;;;;;;10.17;74.57;101505.38;4961956;28;20501;-53
2022/09/23 06:08:39;;;;;;;13.10;9.15;;;;;;;10.19;74.43;101502.66;5004151;28;20030;-53
2022/09/23 06:11:06;;;;;;;10.82;9.20;;;;;;;10.25;75.46;101505.00;4973006;28;20492;-53
2022/09/23 06:13:38;;;;;;;11.93;9.10;;;;;;;10.26;76.57;101504.06;4989383;28;20026;-52
2022/09/23 06:16:21;;;;;;;13.07;9.57;;;;;;;10.31;75.50;101502.06;4961346;28;20047;-52
2022/09/23 06:18:47;;;;;;;13.57;9.40;;;;;;;10.34;76.75;101499.25;4948338;28;20513;-53
2022/09/23 06:21:14;;;;;;;11.00;9.68;;;;;;;10.48;75.32;101503.88;4936321;28;20046;-53
2022/09/23 06:23:41;;;;;;;13.57;9.45;;;;;;;10.48;75.29;101498.53;4962288;28;20031;-53
2022/09/23 06:26:08;;;;;;;13.25;9.93;;;;;;;10.47;74.14;101494.19;4954184;28;20406;-53
2022/09/23 06:28:35;;;;;;;12.30;9.45;;;;;;;10.47;73.87;101496.84;4932526;28;20110;-53
2022/09/23 06:31:04;;;;;;;15.52;10.35;;;;;;;10.58;74.99;101496.25;4951341;28;20081;-53
2022/09/23 06:33:30;;;;;;;17.75;10.18;;;;;;;10.53;74.69;101485.88;4948270;28;20033;-53
2022/09/23 06:35:56;;;;;;;12.95;9.05;;;;;;;10.59;75.02;101498.84;4926592;28;20035;-53
2022/09/23 06:38:22;;;;;;;15.52;9.77;;;;;;;10.66;74.58;101491.41;4968028;28;20035;-53
2022/09/23 06:40:50;;;;;;;13.55;10.55;;;;;;;10.69;73.42;101485.91;4959384;28;20069;-51
2022/09/23 06:43:15;;;;;;;13.68;10.15;;;;;;;10.73;73.79;101494.56;4936273;28;20046;-53
2022/09/23 06:45:40;;;;;;;15.30;9.90;;;;;;;10.81;73.46;101501.22;4968827;28;20066;-52
2022/09/23 06:48:07;;;;;;;12.55;9.50;;;;;;;10.84;73.99;101494.88;4946387;28;20103;-53
2022/09/23 06:50:32;;;;;;;12.38;9.60;;;;;;;10.83;74.62;101499.34;4968350;28;20030;-53
2022/09/23 06:52:58;;;;;;;14.30;9.85;;;;;;;10.83;74.09;101494.00;4952702;28;20377;-52
2022/09/23 06:55:27;;;;;;;10.80;9.80;;;;;;;10.83;74.15;101485.19;4973091;28;20488;-53
2022/09/23 06:58:02;;;;;;;12.27;9.73;;;;;;;10.81;73.75;101484.38;4975809;28;20041;-53
2022/09/23 07:00:27;;;;;;;12.63;10.10;;;;;;;10.94;73.10;101495.22;4972347;28;20034;-53
2022/09/23 07:02:53;;;;;;;10.88;9.25;;;;;;;10.95;73.82;101491.63;4970166;28;20416;-52
2022/09/23 07:05:22;;;;;;;13.32;9.77;;;;;;;11.03;73.23;101495.59;4989187;28;20088;-52
2022/09/23 07:07:52;;;;;;;14.95;10.48;;;;;;;11.03;73.20;101494.72;4991793;28;20056;-53
2022/09/23 07:10:17;;;;;;;14.35;9.73;;;;;;;11.02;72.45;101499.19;4995077;28;20030;-53
2022/09/23 07:12:45;;;;;;;12.82;10.35;;;;;;;11.06;73.21;101490.13;4988851;28;20236;-52
2022/09/23 07:15:10;;;;;;;17.38;10.27;;;;;;;11.12;72.75;101491.59;4971488;28;20065;-53
2022/09/23 07:17:36;;;;;;;15.68;10.10;;;;;;;11.19;72.88;101489.44;5002239;28;20171;-52
2022/09/23 07:20:03;;;;;;;15.55;10.43;;;;;;;11.29;73.43;101480.81;4988515;28;20030;-52
2022/09/23 07:22:29;;;;;;;14.82;9.55;;;;;;;11.35;73.14;101484.94;4988021;28;20221;-53
2022/09/23 07:24:55;;;;;;;12.05;9.98;;;;;;;11.42;73.11;101489.00;4988479;28;20034;-53
2022/09/23 07:27:26;;;;;;;16.10;9.20;;;;;;;11.47;72.83;101491.41;4983990;28;20058;-53
2022/09/23 07:29:52;;;;;;;15.30;9.95;;;;;;;11.54;71.81;101490.97;4973355;28;20474;-54
2022/09/23 07:32:18;;;;;;;18.90;10.13;;;;;;;11.62;72.06;101493.22;4988523;28;20176;-53
2022/09/23 07:34:45;;;;;;;13.35;9.25;;;;;;;11.67;71.86;101490.25;4988211;28;20113;-53
2022/09/23 07:37:12;;;;;;;15.27;9.85;;;;;;;11.74;71.52;101486.31;4988453;28;20512;-53
2022/09/23 07:39:38;;;;;;;13.05;9.43;;;;;;;11.77;71.07;101492.31;4993026;28;20473;-53
2022/09/23 07:42:04;;;;;;;12.98;9.32;;;;;;;11.87;71.08;101492.66;4970283;28;20060;-54
2022/09/23 07:44:31;;;;;;;12.20;8.70;;;;;;;12.01;70.89;101486.53;4970803;28;20030;-52
2022/09/23 07:46:58;;;;;;;14.05;9.70;;;;;;;12.11;70.03;101486.84;4988528;28;20027;-52
2022/09/23 07:49:26;;;;;;;14.05;9.27;;;;;;;12.15;69.77;101496.41;4987955;28;20037;-53
2022/09/23 07:51:53;;;;;;;16.20;9.80;;;;;;;12.19;69.71;101496.13;4988361;28;20101;-53
2022/09/23 07:54:19;;;;;;;12.52;9.48;;;;;;;12.24;69.91;101480.72;4966856;28;20022;-53
2022/09/23 07:56:45;;;;;;;9.15;8.05;;;;;;;12.32;69.07;101485.56;4969272;28;20022;-52
2022/09/23 07:59:17;;;;;;;11.60;9.10;;;;;;;12.43;69.32;101492.94;4988765;28;20030;-53
2022/09/23 08:01:45;;;;;;;13.98;8.80;;;;;;;12.52;69.79;101499.50;4986464;28;20037;-53
2022/09/23 08:04:21;;;;;;;14.30;8.52;;;;;;;12.57;68.67;101492.09;4987848;28;20461;-54
2022/09/23 08:06:53;;;;;;;11.25;8.65;;;;;;;12.64;68.75;101498.75;4986522;28;20050;-53
2022/09/23 08:09:23;;;;;;;13.43;9.15;;;;;;;12.65;67.76;101500.50;4987306;28;20038;-53
2022/09/23 08:11:49;;;;;;;16.52;8.90;;;;;;;12.73;69.38;101493.75;4980660;28;20481;-53
2022/09/23 08:14:17;;;;;;;10.57;8.80;;;;;;;12.79;68.35;101505.81;4992752;28;20078;-52
2022/09/23 08:16:45;;;;;;;12.30;8.88;;;;;;;12.79;67.98;101500.47;4987971;28;20023;-53
2022/09/23 08:19:11;;;;;;;13.32;9.10;;;;;;;12.91;69.14;101499.75;4965708;28;20447;-53
2022/09/23 08:21:38;;;;;;;13.70;8.05;;;;;;;13.00;70.76;101508.09;4967609;28;20031;-53
2022/09/23 08:24:04;;;;;;;10.90;8.32;;;;;;;13.08;68.69;101506.69;4969051;28;20034;-52
2022/09/23 08:26:33;;;;;;;10.60;8.95;;;;;;;13.15;69.67;101507.16;4969273;28;20041;-53
2022/09/23 08:29:01;;;;;;;15.23;8.77;;;;;;;13.24;67.77;101511.06;4991435;28;20030;-53
2022/09/23 08:31:27;;;;;;;12.60;9.02;;;;;;;13.32;67.46;101512.28;4974304;28;20121;-53
2022/09/23 08:33:55;;;;;;;14.07;9.48;;;;;;;13.38;67.63;101506.59;4991129;28;20026;-52
2022/09/23 08:36:20;;;;;;;13.00;8.70;;;;;;;13.42;66.60;101501.91;4992949;28;20484;-52
2022/09/23 08:38:45;;;;;;;13.93;8.88;;;;;;;13.50;67.04;101507.63;5000026;28;20034;-53
2022/09/23 08:41:34;;;;;;;11.68;8.52;;;;;;;13.60;68.80;101503.38;5011210;28;20030;-53
2022/09/23 08:44:08;;;;;;;13.13;9.13;;;;;;;13.58;67.46;101496.41;4993529;28;20026;-53
2022/09/23 08:46:40;;;;;;;16.38;9.00;;;;;;;13.72;66.78;101509.72;5011266;28;20029;-53
2022/09/23 08:49:06;;;;;;;11.85;8.68;;;;;;;13.85;66.57;101505.31;4985039;28;20030;-52
2022/09/23 08:51:44;;;;;;;12.07;8.43;;;;;;;14.00;67.42;101503.41;4974063;28;20022;-52
2022/09/23 08:54:10;;;;;;;13.63;8.55;;;;;;;14.12;67.00;101501.75;4974879;28;20068;-53
2022/09/23 08:56:37;;;;;;;11.48;7.88;;;;;;;14.16;66.65;101505.91;4991714;28;20465;-53
2022/09/23 08:59:06;;;;;;;10.30;7.47;;;;;;;14.34;65.96;101502.94;4985980;28;20087;-53
2022/09/23 09:01:43;;;;;;;9.93;7.63;;;;;;;14.41;65.68;101499.75;5010895;28;20029;-52
2022/09/23 09:04:37;;;;;;;13.73;7.95;;;;;;;14.46;64.78;101499.41;4992710;28;20038;-53
2022/09/23 09:07:06;;;;;;;10.00;6.88;;;;;;;14.59;64.18;101500.34;5006888;28;20038;-52
2022/09/23 09:09:38;;;;;;;11.23;7.88;;;;;;;14.63;63.43;101491.13;4992080;28;20026;-51
2022/09/23 09:12:14;;;;;;;12.82;7.80;;;;;;;14.72;63.31;101487.78;4974029;28;20087;-52
2022/09/23 09:14:50;;;;;;;15.05;8.02;;;;;;;14.82;63.04;101482.63;4991119;28;20022;-51
2022/09/23 09:17:33;;;;;;;11.73;7.90;;;;;;;14.85;62.47;101490.44;4990822;28;20026;-49
2022/09/23 09:20:18;;;;;;;11.25;7.25;;;;;;;14.99;63.49;101492.16;4971263;28;20080;-51
2022/09/23 09:22:53;;;;;;;9.60;7.05;;;;;;;15.13;62.20;101491.16;5007740;28;20081;-50
2022/09/23 09:25:38;;;;;;;9.77;6.80;;;;;;;15.17;61.97;101489.97;5010144;28;20390;-52
2022/09/23 09:28:29;;;;;;;8.02;6.22;;;;;;;15.12;63.11;101471.56;5010480;28;20030;-53
2022/09/23 09:31:15;;;;;;;11.90;6.63;;;;;;;15.28;62.12;101486.53;5010406;28;20026;-53
2022/09/23 09:34:06;;;;;;;9.63;6.30;;;;;;;15.32;60.23;101491.53;4985768;28;20089;-52
2022/09/23 09:36:43;;;;;;;9.82;6.72;;;;;;;15.51;60.45;101482.16;4954033;28;20476;-50
2022/09/23 09:39:12;;;;;;;10.40;5.53;;;;;;;15.73;59.54;101486.81;4971294;28;20019;-52
2022/09/23 09:41:40;;;;;;;10.43;6.05;;;;;;;15.82;59.06;101475.41;4974930;28;20027;-53
2022/09/23 09:44:23;;;;;;;8.02;5.95;;;;;;;15.93;58.32;101474.59;4990941;28;20030;-53
2022/09/23 09:47:16;;;;;;;8.40;6.07;;;;;;;16.13;58.64;101482.00;4990437;28;20030;-53
2022/09/23 09:49:50;;;;;;;12.07;5.32;;;;;;;16.38;56.92;101474.72;4972746;28;20453;-53
2022/09/23 09:52:30;;;;;;;8.68;4.90;;;;;;;16.48;55.84;101473.03;4991381;28;20580;-53
2022/09/23 09:55:24;;;;;;;7.25;4.38;;;;;;;16.65;56.49;101474.38;4973134;28;20049;-52
2022/09/23 09:58:00;;;;;;;7.43;4.60;;;;;;;16.63;52.97;101474.53;4990455;28;20110;-50
2022/09/23 10:00:26;;;;;;;6.57;4.90;;;;;;;16.63;53.38;101473.69;4990329;28;20030;-52
2022/09/23 10:02:58;;;;;;;7.50;4.85;;;;;;;16.61;54.86;101468.41;4991636;28;20022;-53
2022/09/23 10:05:54;;;;;;;7.10;5.45;;;;;;;16.80;54.04;101465.19;4989810;28;20038;-52
2022/09/23 10:08:35;;;;;;;6.82;5.20;;;;;;;16.77;54.49;101468.09;4972933;28;20129;-52
2022/09/23 10:11:15;;;;;;;9.93;5.25;;;;;;;16.83;53.55;101469.44;4990815;28;20076;-52
2022/09/23 10:13:41;;;;;;;;;;;;;;;17.01;54.98;101467.97;5005423;28;20034;-53
2022/09/23 10:16:08;;;;;;;11.63;6.65;;;;;;;16.84;53.71;101469.31;4992507;28;19914;-52
2022/09/23 10:18:42;;;;;;;10.27;5.55;;;;;;;16.80;54.48;101467.84;4992074;28;20029;-53
2022/09/23 10:21:14;;;;;;;8.15;5.75;;;;;;;16.89;54.20;101464.44;5009969;28;20033;-53
2022/09/23 10:24:00;;;;;;;9.43;5.47;;;;;;;17.08;54.78;101460.25;5007962;28;20110;-52
2022/09/23 10:26:36;;;;;;;8.82;6.18;;;;;;;17.16;54.23;101458.66;5009315;28;20093;-50
2022/09/23 10:29:30;;;;;;;9.90;5.65;;;;;;;17.21;54.75;101450.25;4991991;28;20030;-53
2022/09/23 10:32:19;;;;;;;9.98;5.55;;;;;;;17.24;54.97;101460.75;4988702;28;20100;-53
2022/09/23 10:34:50;;;;;;;8.97;6.23;;;;;;;17.18;52.91;101461.25;4989503;28;20030;-52
2022/09/23 10:37:31;;;;;;;11.93;5.72;;;;;;;17.18;52.88;101454.03;4989415;28;20285;-53
2022/09/23 10:48:44;;;;;;;8.75;6.03;;;;;;;17.18;54.05;101453.19;4988826;28;20038;-54
2022/09/23 10:51:39;;;;;;;24.05;7.43;;;;;;;17.24;53.64;101463.44;4972475;28;20031;-56
2022/09/23 10:54:43;;;;;;;9.18;6.25;;;;;;;17.28;54.09;101456.81;4970306;28;20084;-58
2022/09/23 10:57:40;;;;;;;8.63;5.97;;;;;;;17.37;55.04;101453.38;4942760;28;20680;-56
2022/09/23 11:00:17;;;;;;;10.52;6.68;;;;;;;17.40;53.60;101454.94;4970141;28;20587;-53
2022/09/23 11:02:55;;;;;;;7.65;5.63;;;;;;;17.39;51.77;101450.56;4986417;28;20461;-53
2022/09/23 11:05:29;;;;;;;12.23;5.40;;;;;;;17.38;52.25;101452.41;5008601;28;20040;-53
2022/09/23 11:08:18;;;;;;;10.38;5.45;;;;;;;17.43;52.96;101450.16;5008823;28;20073;-53
2022/09/23 11:10:50;;;;;;;10.60;5.30;;;;;;;17.41;52.28;101451.28;5009222;28;20034;-51
2022/09/23 11:13:34;;;;;;;10.68;5.65;;;;;;;17.41;51.82;101449.47;4997062;28;20049;-50
2022/09/23 11:16:37;;;;;;;14.40;5.45;;;;;;;17.53;51.51;101450.28;5009072;28;20170;-51
2022/09/23 11:19:20;;;;;;;8.70;5.38;;;;;;;17.64;52.32;101444.84;4977930;28;20058;-52
2022/09/23 11:22:07;;;;;;;7.03;4.97;;;;;;;17.77;52.56;101443.84;4989373;28;20523;-52
2022/09/23 11:25:05;;;;;;;8.23;5.57;;;;;;;17.79;52.00;101434.66;4971607;28;20034;-52
2022/09/23 11:27:37;;;;;;;8.75;5.50;;;;;;;18.01;53.58;101433.72;4987203;28;20014;-48
2022/09/23 11:30:13;;;;;;;8.30;5.40;;;;;;;18.13;51.76;101442.56;4995776;28;20038;-51
2022/09/23 11:33:02;;;;;;;10.85;5.20;;;;;;;18.36;53.20;101441.44;4988385;28;20026;-52
2022/09/23 11:35:49;;;;;;;9.15;5.18;;;;;;;18.40;52.25;101431.25;4971158;28;20046;-51
2022/09/23 11:38:24;;;;;;;10.00;5.47;;;;;;;18.36;50.18;101428.00;4985845;28;20030;-53
2022/09/23 11:40:54;;;;;;;7.50;4.65;;;;;;;18.32;50.02;101420.28;4986743;28;20041;-53
2022/09/23 11:43:30;;;;;;;7.63;5.55;;;;;;;18.41;49.88;101424.88;4995438;28;20027;-50
2022/09/23 11:46:06;;;;;;;8.15;4.90;;;;;;;18.49;50.49;101421.53;4972625;28;20060;-52
2022/09/23 11:48:46;;;;;;;9.18;4.95;;;;;;;18.59;49.51;101414.34;4977278;28;20553;-52
2022/09/23 11:51:22;;;;;;;5.63;3.80;;;;;;;18.92;48.82;101423.16;5008697;28;20030;-53